sensor_id;sensor_type;location;lat;lon;timestamp;P1;durP1;ratioP1;P2;durP2;ratioP2
47529;SDS011;33272;51.922;7.730;2023-12-04T00:02:24;16.67;;;10.67;;
47529;SDS011;33272;51.922;7.730;2023-12-04T00:04:51;14.00;;;9.57;;
47529;SDS011;33272;51.922;7.730;2023-12-04T00:07:18;15.47;;;10.27;;
47529;SDS011;33272;51.922;7.730;2023-12-04T00:09:45;14.30;;;9.70;;
47529;SDS011;33272;51.922;7.730;2023-12-04T00:12:14;16.13;;;10.27;;
47529;SDS011;33272;51.922;7.730;2023-12-04T00:14:41;15.20;;;9.07;;
47529;SDS011;33272;51.922;7.730;2023-12-04T00:17:07;15.17;;;10.13;;
47529;SDS011;33272;51.922;7.730;2023-12-04T00:19:34;13.57;;;9.53;;
47529;SDS011;33272;51.922;7.730;2023-12-04T00:22:01;15.60;;;10.47;;
47529;SDS011;33272;51.922;7.730;2023-12-04T00:24:29;14.00;;;9.33;;
47529;SDS011;33272;51.922;7.730;2023-12-04T00:26:56;15.57;;;11.27;;
47529;SDS011;33272;51.922;7.730;2023-12-04T00:29:24;13.47;;;8.93;;
47529;SDS011;33272;51.922;7.730;2023-12-04T00:31:52;15.20;;;10.57;;
47529;SDS011;33272;51.922;7.730;2023-12-04T00:34:19;17.90;;;10.40;;
47529;SDS011;33272;51.922;7.730;2023-12-04T00:36:46;15.23;;;10.33;;
47529;SDS011;33272;51.922;7.730;2023-12-04T00:39:13;15.10;;;9.20;;
47529;SDS011;33272;51.922;7.730;2023-12-04T00:41:40;14.53;;;9.80;;
47529;SDS011;33272;51.922;7.730;2023-12-04T00:44:07;15.20;;;10.33;;
47529;SDS011;33272;51.922;7.730;2023-12-04T00:46:35;13.17;;;10.03;;
47529;SDS011;33272;51.922;7.730;2023-12-04T00:49:02;14.27;;;10.27;;
47529;SDS011;33272;51.922;7.730;2023-12-04T00:51:31;13.47;;;9.50;;
47529;SDS011;33272;51.922;7.730;2023-12-04T00:54:04;13.50;;;9.90;;
47529;SDS011;33272;51.922;7.730;2023-12-04T00:56:31;15.30;;;10.40;;
47529;SDS011;33272;51.922;7.730;2023-12-04T00:58:58;15.33;;;10.47;;
47529;SDS011;33272;51.922;7.730;2023-12-04T01:01:25;13.63;;;8.77;;
47529;SDS011;33272;51.922;7.730;2023-12-04T01:03:53;14.83;;;9.33;;
47529;SDS011;33272;51.922;7.730;2023-12-04T01:06:21;15.50;;;9.23;;
47529;SDS011;33272;51.922;7.730;2023-12-04T01:08:48;14.47;;;9.70;;
47529;SDS011;33272;51.922;7.730;2023-12-04T01:11:16;15.13;;;9.60;;
47529;SDS011;33272;51.922;7.730;2023-12-04T01:13:44;13.67;;;9.23;;
47529;SDS011;33272;51.922;7.730;2023-12-04T01:16:11;16.10;;;10.17;;
47529;SDS011;33272;51.922;7.730;2023-12-04T01:18:38;12.27;;;8.80;;
47529;SDS011;33272;51.922;7.730;2023-12-04T01:21:07;14.93;;;8.70;;
47529;SDS011;33272;51.922;7.730;2023-12-04T01:23:34;13.00;;;9.30;;
47529;SDS011;33272;51.922;7.730;2023-12-04T01:26:02;14.00;;;8.90;;
47529;SDS011;33272;51.922;7.730;2023-12-04T01:28:29;12.93;;;9.07;;
47529;SDS011;33272;51.922;7.730;2023-12-04T01:30:56;12.80;;;8.90;;
47529;SDS011;33272;51.922;7.730;2023-12-04T01:33:23;12.87;;;8.77;;
47529;SDS011;33272;51.922;7.730;2023-12-04T01:35:50;12.97;;;8.87;;
47529;SDS011;33272;51.922;7.730;2023-12-04T01:38:19;12.67;;;8.60;;
47529;SDS011;33272;51.922;7.730;2023-12-04T01:40:46;14.23;;;9.23;;
47529;SDS011;33272;51.922;7.730;2023-12-04T01:43:13;12.17;;;8.87;;
47529;SDS011;33272;51.922;7.730;2023-12-04T01:45:40;13.73;;;9.30;;
47529;SDS011;33272;51.922;7.730;2023-12-04T01:48:07;12.40;;;8.60;;
47529;SDS011;33272;51.922;7.730;2023-12-04T01:50:35;12.07;;;8.47;;
47529;SDS011;33272;51.922;7.730;2023-12-04T01:53:04;12.40;;;8.60;;
47529;SDS011;33272;51.922;7.730;2023-12-04T01:55:32;11.17;;;8.27;;
47529;SDS011;33272;51.922;7.730;2023-12-04T01:58:00;12.63;;;8.97;;
47529;SDS011;33272;51.922;7.730;2023-12-04T02:00:29;12.83;;;9.40;;
47529;SDS011;33272;51.922;7.730;2023-12-04T02:02:56;12.03;;;9.10;;
47529;SDS011;33272;51.922;7.730;2023-12-04T02:05:26;14.47;;;8.47;;
47529;SDS011;33272;51.922;7.730;2023-12-04T02:07:53;13.13;;;9.23;;
47529;SDS011;33272;51.922;7.730;2023-12-04T02:10:21;11.17;;;8.20;;
47529;SDS011;33272;51.922;7.730;2023-12-04T02:12:49;13.43;;;9.60;;
47529;SDS011;33272;51.922;7.730;2023-12-04T02:15:17;11.63;;;8.90;;
47529;SDS011;33272;51.922;7.730;2023-12-04T02:17:44;13.67;;;8.90;;
47529;SDS011;33272;51.922;7.730;2023-12-04T02:20:12;14.17;;;9.53;;
47529;SDS011;33272;51.922;7.730;2023-12-04T02:22:39;13.93;;;9.30;;
47529;SDS011;33272;51.922;7.730;2023-12-04T02:25:08;13.00;;;9.33;;
47529;SDS011;33272;51.922;7.730;2023-12-04T02:27:37;13.40;;;8.77;;
47529;SDS011;33272;51.922;7.730;2023-12-04T02:30:09;13.97;;;8.97;;
47529;SDS011;33272;51.922;7.730;2023-12-04T02:32:41;12.17;;;8.67;;
47529;SDS011;33272;51.922;7.730;2023-12-04T02:35:11;12.70;;;9.07;;
47529;SDS011;33272;51.922;7.730;2023-12-04T02:37:42;12.20;;;8.50;;
47529;SDS011;33272;51.922;7.730;2023-12-04T02:40:11;14.70;;;8.53;;
47529;SDS011;33272;51.922;7.730;2023-12-04T02:42:39;13.07;;;9.23;;
47529;SDS011;33272;51.922;7.730;2023-12-04T02:45:07;12.50;;;8.63;;
47529;SDS011;33272;51.922;7.730;2023-12-04T02:47:34;13.60;;;9.50;;
47529;SDS011;33272;51.922;7.730;2023-12-04T02:50:02;13.27;;;8.93;;
47529;SDS011;33272;51.922;7.730;2023-12-04T02:52:29;13.33;;;9.10;;
47529;SDS011;33272;51.922;7.730;2023-12-04T02:54:56;13.00;;;8.97;;
47529;SDS011;33272;51.922;7.730;2023-12-04T02:57:25;14.43;;;9.60;;
47529;SDS011;33272;51.922;7.730;2023-12-04T02:59:52;15.33;;;8.63;;
47529;SDS011;33272;51.922;7.730;2023-12-04T03:02:19;13.23;;;9.00;;
47529;SDS011;33272;51.922;7.730;2023-12-04T03:04:46;15.20;;;9.37;;
47529;SDS011;33272;51.922;7.730;2023-12-04T03:07:13;11.50;;;8.90;;
47529;SDS011;33272;51.922;7.730;2023-12-04T03:09:40;13.40;;;9.47;;
47529;SDS011;33272;51.922;7.730;2023-12-04T03:12:07;12.50;;;9.43;;
47529;SDS011;33272;51.922;7.730;2023-12-04T03:14:35;15.23;;;8.67;;
47529;SDS011;33272;51.922;7.730;2023-12-04T03:17:02;13.87;;;9.70;;
47529;SDS011;33272;51.922;7.730;2023-12-04T03:19:29;14.37;;;9.53;;
47529;SDS011;33272;51.922;7.730;2023-12-04T03:21:56;14.70;;;9.83;;
47529;SDS011;33272;51.922;7.730;2023-12-04T03:24:23;14.70;;;9.77;;
47529;SDS011;33272;51.922;7.730;2023-12-04T03:26:50;14.13;;;8.97;;
47529;SDS011;33272;51.922;7.730;2023-12-04T03:29:17;13.97;;;9.83;;
47529;SDS011;33272;51.922;7.730;2023-12-04T03:31:46;13.07;;;8.83;;
47529;SDS011;33272;51.922;7.730;2023-12-04T03:34:13;16.00;;;9.77;;
47529;SDS011;33272;51.922;7.730;2023-12-04T03:36:40;13.37;;;10.17;;
47529;SDS011;33272;51.922;7.730;2023-12-04T03:39:07;15.67;;;10.20;;
47529;SDS011;33272;51.922;7.730;2023-12-04T03:41:34;13.87;;;9.23;;
47529;SDS011;33272;51.922;7.730;2023-12-04T03:44:01;15.67;;;10.03;;
47529;SDS011;33272;51.922;7.730;2023-12-04T03:46:28;14.93;;;9.27;;
47529;SDS011;33272;51.922;7.730;2023-12-04T03:48:56;15.00;;;9.83;;
47529;SDS011;33272;51.922;7.730;2023-12-04T03:51:23;14.40;;;10.00;;
47529;SDS011;33272;51.922;7.730;2023-12-04T03:53:50;15.57;;;10.60;;
47529;SDS011;33272;51.922;7.730;2023-12-04T03:56:17;14.17;;;9.40;;
47529;SDS011;33272;51.922;7.730;2023-12-04T03:58:44;13.87;;;9.67;;
47529;SDS011;33272;51.922;7.730;2023-12-04T04:01:11;15.17;;;10.17;;
47529;SDS011;33272;51.922;7.730;2023-12-04T04:03:38;14.90;;;10.03;;
47529;SDS011;33272;51.922;7.730;2023-12-04T04:06:06;13.37;;;9.70;;
47529;SDS011;33272;51.922;7.730;2023-12-04T04:08:35;15.00;;;10.10;;
47529;SDS011;33272;51.922;7.730;2023-12-04T04:11:02;12.47;;;8.87;;
47529;SDS011;33272;51.922;7.730;2023-12-04T04:13:29;14.80;;;9.30;;
47529;SDS011;33272;51.922;7.730;2023-12-04T04:15:56;14.63;;;10.00;;
47529;SDS011;33272;51.922;7.730;2023-12-04T04:18:23;13.00;;;9.10;;
47529;SDS011;33272;51.922;7.730;2023-12-04T04:20:50;12.00;;;8.57;;
47529;SDS011;33272;51.922;7.730;2023-12-04T04:23:18;13.60;;;9.13;;
47529;SDS011;33272;51.922;7.730;2023-12-04T04:25:45;12.47;;;9.03;;
47529;SDS011;33272;51.922;7.730;2023-12-04T04:28:12;12.53;;;9.40;;
47529;SDS011;33272;51.922;7.730;2023-12-04T04:30:39;14.57;;;9.47;;
47529;SDS011;33272;51.922;7.730;2023-12-04T04:33:06;14.13;;;8.80;;
47529;SDS011;33272;51.922;7.730;2023-12-04T04:35:33;13.67;;;9.43;;
47529;SDS011;33272;51.922;7.730;2023-12-04T04:38:00;13.23;;;8.93;;
47529;SDS011;33272;51.922;7.730;2023-12-04T04:40:29;12.87;;;9.00;;
47529;SDS011;33272;51.922;7.730;2023-12-04T04:42:56;12.03;;;8.47;;
47529;SDS011;33272;51.922;7.730;2023-12-04T04:45:22;13.20;;;8.90;;
47529;SDS011;33272;51.922;7.730;2023-12-04T04:47:49;11.47;;;7.87;;
47529;SDS011;33272;51.922;7.730;2023-12-04T04:50:16;13.73;;;8.73;;
47529;SDS011;33272;51.922;7.730;2023-12-04T04:52:43;12.60;;;8.30;;
47529;SDS011;33272;51.922;7.730;2023-12-04T04:55:10;11.23;;;8.63;;
47529;SDS011;33272;51.922;7.730;2023-12-04T04:57:39;12.33;;;8.50;;
47529;SDS011;33272;51.922;7.730;2023-12-04T05:00:06;13.23;;;8.57;;
47529;SDS011;33272;51.922;7.730;2023-12-04T05:02:34;12.87;;;7.80;;
47529;SDS011;33272;51.922;7.730;2023-12-04T05:05:02;11.80;;;8.10;;
47529;SDS011;33272;51.922;7.730;2023-12-04T05:07:30;12.87;;;7.90;;
47529;SDS011;33272;51.922;7.730;2023-12-04T05:09:57;10.73;;;8.23;;
47529;SDS011;33272;51.922;7.730;2023-12-04T05:12:24;11.40;;;8.30;;
47529;SDS011;33272;51.922;7.730;2023-12-04T05:14:52;10.60;;;7.87;;
47529;SDS011;33272;51.922;7.730;2023-12-04T05:17:19;10.77;;;7.47;;
47529;SDS011;33272;51.922;7.730;2023-12-04T05:19:46;12.10;;;7.60;;
47529;SDS011;33272;51.922;7.730;2023-12-04T05:22:13;10.80;;;8.33;;
47529;SDS011;33272;51.922;7.730;2023-12-04T05:24:40;9.23;;;7.37;;
47529;SDS011;33272;51.922;7.730;2023-12-04T05:27:07;10.30;;;7.80;;
47529;SDS011;33272;51.922;7.730;2023-12-04T05:29:34;14.40;;;9.10;;
47529;SDS011;33272;51.922;7.730;2023-12-04T05:32:02;10.90;;;7.77;;
47529;SDS011;33272;51.922;7.730;2023-12-04T05:34:30;9.67;;;7.93;;
47529;SDS011;33272;51.922;7.730;2023-12-04T05:36:57;10.93;;;8.10;;
47529;SDS011;33272;51.922;7.730;2023-12-04T05:39:24;11.70;;;7.37;;
47529;SDS011;33272;51.922;7.730;2023-12-04T05:41:51;9.17;;;7.33;;
47529;SDS011;33272;51.922;7.730;2023-12-04T05:44:18;10.77;;;7.23;;
47529;SDS011;33272;51.922;7.730;2023-12-04T05:46:45;11.93;;;8.00;;
47529;SDS011;33272;51.922;7.730;2023-12-04T05:49:13;11.23;;;7.67;;
47529;SDS011;33272;51.922;7.730;2023-12-04T05:51:40;11.27;;;8.40;;
47529;SDS011;33272;51.922;7.730;2023-12-04T05:54:07;10.77;;;7.27;;
47529;SDS011;33272;51.922;7.730;2023-12-04T05:56:35;9.47;;;7.43;;
47529;SDS011;33272;51.922;7.730;2023-12-04T05:59:02;10.23;;;7.30;;
47529;SDS011;33272;51.922;7.730;2023-12-04T06:01:29;10.40;;;7.57;;
47529;SDS011;33272;51.922;7.730;2023-12-04T06:03:56;10.70;;;6.97;;
47529;SDS011;33272;51.922;7.730;2023-12-04T06:06:24;11.17;;;7.60;;
47529;SDS011;33272;51.922;7.730;2023-12-04T06:08:52;13.20;;;7.77;;
47529;SDS011;33272;51.922;7.730;2023-12-04T06:11:19;11.10;;;7.40;;
47529;SDS011;33272;51.922;7.730;2023-12-04T06:13:46;10.33;;;7.00;;
47529;SDS011;33272;51.922;7.730;2023-12-04T06:16:13;8.80;;;6.30;;
47529;SDS011;33272;51.922;7.730;2023-12-04T06:18:40;10.20;;;7.47;;
47529;SDS011;33272;51.922;7.730;2023-12-04T06:21:07;10.40;;;7.70;;
47529;SDS011;33272;51.922;7.730;2023-12-04T06:23:36;10.67;;;7.67;;
47529;SDS011;33272;51.922;7.730;2023-12-04T06:26:04;10.40;;;7.10;;
47529;SDS011;33272;51.922;7.730;2023-12-04T06:28:33;9.50;;;6.87;;
47529;SDS011;33272;51.922;7.730;2023-12-04T06:31:01;11.23;;;7.00;;
47529;SDS011;33272;51.922;7.730;2023-12-04T06:33:29;10.07;;;6.87;;
47529;SDS011;33272;51.922;7.730;2023-12-04T06:35:57;9.07;;;6.80;;
47529;SDS011;33272;51.922;7.730;2023-12-04T06:38:24;8.47;;;6.63;;
47529;SDS011;33272;51.922;7.730;2023-12-04T06:40:54;9.10;;;6.63;;
47529;SDS011;33272;51.922;7.730;2023-12-04T06:43:22;8.57;;;6.40;;
47529;SDS011;33272;51.922;7.730;2023-12-04T06:45:49;8.60;;;6.47;;
47529;SDS011;33272;51.922;7.730;2023-12-04T06:48:17;8.80;;;6.97;;
47529;SDS011;33272;51.922;7.730;2023-12-04T06:50:44;10.23;;;7.43;;
47529;SDS011;33272;51.922;7.730;2023-12-04T06:53:12;8.40;;;6.27;;
47529;SDS011;33272;51.922;7.730;2023-12-04T06:55:41;9.63;;;7.33;;
47529;SDS011;33272;51.922;7.730;2023-12-04T06:58:10;9.33;;;7.00;;
47529;SDS011;33272;51.922;7.730;2023-12-04T07:00:37;8.83;;;6.70;;
47529;SDS011;33272;51.922;7.730;2023-12-04T07:03:04;9.30;;;6.47;;
47529;SDS011;33272;51.922;7.730;2023-12-04T07:05:31;8.33;;;6.53;;
47529;SDS011;33272;51.922;7.730;2023-12-04T07:07:58;8.10;;;6.53;;
47529;SDS011;33272;51.922;7.730;2023-12-04T07:10:25;11.10;;;7.70;;
47529;SDS011;33272;51.922;7.730;2023-12-04T07:12:52;8.97;;;6.80;;
47529;SDS011;33272;51.922;7.730;2023-12-04T07:15:20;10.73;;;6.57;;
47529;SDS011;33272;51.922;7.730;2023-12-04T07:17:47;10.27;;;6.73;;
47529;SDS011;33272;51.922;7.730;2023-12-04T07:20:14;10.67;;;6.57;;
47529;SDS011;33272;51.922;7.730;2023-12-04T07:22:41;8.23;;;6.30;;
47529;SDS011;33272;51.922;7.730;2023-12-04T07:25:08;9.80;;;6.83;;
47529;SDS011;33272;51.922;7.730;2023-12-04T07:27:35;9.83;;;7.00;;
47529;SDS011;33272;51.922;7.730;2023-12-04T07:30:02;8.50;;;6.70;;
47529;SDS011;33272;51.922;7.730;2023-12-04T07:32:33;9.97;;;7.23;;
47529;SDS011;33272;51.922;7.730;2023-12-04T07:35:00;10.40;;;7.30;;
47529;SDS011;33272;51.922;7.730;2023-12-04T07:37:27;11.43;;;7.37;;
47529;SDS011;33272;51.922;7.730;2023-12-04T07:39:55;11.87;;;8.47;;
47529;SDS011;33272;51.922;7.730;2023-12-04T07:42:22;11.83;;;8.03;;
47529;SDS011;33272;51.922;7.730;2023-12-04T07:44:49;10.50;;;7.67;;
47529;SDS011;33272;51.922;7.730;2023-12-04T07:47:16;13.50;;;9.60;;
47529;SDS011;33272;51.922;7.730;2023-12-04T07:49:45;10.87;;;8.07;;
47529;SDS011;33272;51.922;7.730;2023-12-04T07:52:12;12.00;;;8.37;;
47529;SDS011;33272;51.922;7.730;2023-12-04T07:54:39;11.87;;;8.83;;
47529;SDS011;33272;51.922;7.730;2023-12-04T07:57:06;12.37;;;9.60;;
47529;SDS011;33272;51.922;7.730;2023-12-04T07:59:33;30.23;;;21.57;;
47529;SDS011;33272;51.922;7.730;2023-12-04T08:02:02;12.77;;;8.97;;
47529;SDS011;33272;51.922;7.730;2023-12-04T08:04:29;10.80;;;7.13;;
47529;SDS011;33272;51.922;7.730;2023-12-04T08:06:58;13.30;;;9.27;;
47529;SDS011;33272;51.922;7.730;2023-12-04T08:09:25;13.90;;;9.47;;
47529;SDS011;33272;51.922;7.730;2023-12-04T08:11:52;13.87;;;10.07;;
47529;SDS011;33272;51.922;7.730;2023-12-04T08:14:19;12.20;;;8.63;;
47529;SDS011;33272;51.922;7.730;2023-12-04T08:16:47;10.70;;;7.83;;
47529;SDS011;33272;51.922;7.730;2023-12-04T08:19:15;10.83;;;8.57;;
47529;SDS011;33272;51.922;7.730;2023-12-04T08:21:42;12.23;;;9.30;;
47529;SDS011;33272;51.922;7.730;2023-12-04T08:24:10;14.77;;;11.67;;
47529;SDS011;33272;51.922;7.730;2023-12-04T08:26:38;11.63;;;8.67;;
47529;SDS011;33272;51.922;7.730;2023-12-04T08:29:05;9.97;;;7.43;;
47529;SDS011;33272;51.922;7.730;2023-12-04T08:31:32;12.17;;;7.53;;
47529;SDS011;33272;51.922;7.730;2023-12-04T08:33:59;8.90;;;7.23;;
47529;SDS011;33272;51.922;7.730;2023-12-04T08:36:26;8.97;;;7.37;;
47529;SDS011;33272;51.922;7.730;2023-12-04T08:38:53;12.37;;;9.50;;
47529;SDS011;33272;51.922;7.730;2023-12-04T08:41:21;10.53;;;7.33;;
47529;SDS011;33272;51.922;7.730;2023-12-04T08:43:48;9.07;;;7.53;;
47529;SDS011;33272;51.922;7.730;2023-12-04T08:46:15;10.20;;;7.00;;
47529;SDS011;33272;51.922;7.730;2023-12-04T08:48:42;10.53;;;7.30;;
47529;SDS011;33272;51.922;7.730;2023-12-04T08:51:14;9.90;;;6.73;;
47529;SDS011;33272;51.922;7.730;2023-12-04T08:53:42;7.90;;;6.27;;
47529;SDS011;33272;51.922;7.730;2023-12-04T08:56:10;7.20;;;6.23;;
47529;SDS011;33272;51.922;7.730;2023-12-04T08:58:39;9.40;;;6.70;;
47529;SDS011;33272;51.922;7.730;2023-12-04T09:01:06;9.03;;;7.03;;
47529;SDS011;33272;51.922;7.730;2023-12-04T09:03:33;9.93;;;7.47;;
47529;SDS011;33272;51.922;7.730;2023-12-04T09:06:00;8.67;;;6.73;;
47529;SDS011;33272;51.922;7.730;2023-12-04T09:08:27;9.57;;;6.83;;
47529;SDS011;33272;51.922;7.730;2023-12-04T09:10:55;8.30;;;6.77;;
47529;SDS011;33272;51.922;7.730;2023-12-04T09:13:22;8.20;;;6.60;;
47529;SDS011;33272;51.922;7.730;2023-12-04T09:15:52;7.70;;;6.50;;
47529;SDS011;33272;51.922;7.730;2023-12-04T09:18:19;7.33;;;5.83;;
47529;SDS011;33272;51.922;7.730;2023-12-04T09:20:48;8.77;;;6.33;;
47529;SDS011;33272;51.922;7.730;2023-12-04T09:23:15;7.60;;;6.30;;
47529;SDS011;33272;51.922;7.730;2023-12-04T09:25:42;8.30;;;6.70;;
47529;SDS011;33272;51.922;7.730;2023-12-04T09:28:09;9.33;;;7.17;;
47529;SDS011;33272;51.922;7.730;2023-12-04T09:30:36;9.40;;;6.60;;
47529;SDS011;33272;51.922;7.730;2023-12-04T09:33:05;8.03;;;6.20;;
47529;SDS011;33272;51.922;7.730;2023-12-04T09:35:32;9.53;;;6.73;;
47529;SDS011;33272;51.922;7.730;2023-12-04T09:37:59;9.30;;;7.10;;
47529;SDS011;33272;51.922;7.730;2023-12-04T09:40:26;7.97;;;6.53;;
47529;SDS011;33272;51.922;7.730;2023-12-04T09:42:53;14.73;;;9.27;;
47529;SDS011;33272;51.922;7.730;2023-12-04T09:45:21;8.90;;;7.10;;
47529;SDS011;33272;51.922;7.730;2023-12-04T09:47:51;9.43;;;7.07;;
47529;SDS011;33272;51.922;7.730;2023-12-04T09:50:20;11.13;;;9.13;;
47529;SDS011;33272;51.922;7.730;2023-12-04T09:52:48;9.10;;;7.57;;
47529;SDS011;33272;51.922;7.730;2023-12-04T09:55:16;9.40;;;8.13;;
47529;SDS011;33272;51.922;7.730;2023-12-04T09:57:43;9.63;;;7.70;;
47529;SDS011;33272;51.922;7.730;2023-12-04T10:00:12;11.00;;;8.90;;
47529;SDS011;33272;51.922;7.730;2023-12-04T10:02:41;8.57;;;7.23;;
47529;SDS011;33272;51.922;7.730;2023-12-04T10:05:08;9.87;;;8.00;;
47529;SDS011;33272;51.922;7.730;2023-12-04T10:07:37;11.23;;;8.00;;
47529;SDS011;33272;51.922;7.730;2023-12-04T10:10:05;10.13;;;6.80;;
47529;SDS011;33272;51.922;7.730;2023-12-04T10:12:33;9.17;;;6.90;;
47529;SDS011;33272;51.922;7.730;2023-12-04T10:15:05;7.97;;;6.80;;
47529;SDS011;33272;51.922;7.730;2023-12-04T10:17:34;6.97;;;6.17;;
47529;SDS011;33272;51.922;7.730;2023-12-04T10:20:06;8.57;;;6.97;;
47529;SDS011;33272;51.922;7.730;2023-12-04T10:22:39;7.47;;;5.90;;
47529;SDS011;33272;51.922;7.730;2023-12-04T10:25:19;7.13;;;5.63;;
47529;SDS011;33272;51.922;7.730;2023-12-04T10:27:46;8.83;;;6.20;;
47529;SDS011;33272;51.922;7.730;2023-12-04T10:30:23;7.10;;;5.77;;
47529;SDS011;33272;51.922;7.730;2023-12-04T10:32:56;8.97;;;7.00;;
47529;SDS011;33272;51.922;7.730;2023-12-04T10:35:25;9.13;;;6.53;;
47529;SDS011;33272;51.922;7.730;2023-12-04T10:37:58;8.20;;;6.80;;
47529;SDS011;33272;51.922;7.730;2023-12-04T10:40:26;8.13;;;6.70;;
47529;SDS011;33272;51.922;7.730;2023-12-04T10:43:15;8.17;;;6.17;;
47529;SDS011;33272;51.922;7.730;2023-12-04T10:45:44;7.70;;;6.17;;
47529;SDS011;33272;51.922;7.730;2023-12-04T10:48:12;9.63;;;6.03;;
47529;SDS011;33272;51.922;7.730;2023-12-04T10:50:41;8.23;;;6.27;;
47529;SDS011;33272;51.922;7.730;2023-12-04T10:53:12;7.97;;;6.57;;
47529;SDS011;33272;51.922;7.730;2023-12-04T10:55:40;9.80;;;6.37;;
47529;SDS011;33272;51.922;7.730;2023-12-04T10:58:09;7.57;;;6.10;;
47529;SDS011;33272;51.922;7.730;2023-12-04T11:00:38;6.80;;;5.33;;
47529;SDS011;33272;51.922;7.730;2023-12-04T11:03:13;5.87;;;5.13;;
47529;SDS011;33272;51.922;7.730;2023-12-04T11:05:45;7.03;;;5.37;;
47529;SDS011;33272;51.922;7.730;2023-12-04T11:08:16;6.40;;;5.17;;
47529;SDS011;33272;51.922;7.730;2023-12-04T11:10:45;5.63;;;5.00;;
47529;SDS011;33272;51.922;7.730;2023-12-04T11:13:17;6.67;;;4.83;;
47529;SDS011;33272;51.922;7.730;2023-12-04T11:15:52;6.47;;;4.93;;
47529;SDS011;33272;51.922;7.730;2023-12-04T11:18:31;6.10;;;4.97;;
47529;SDS011;33272;51.922;7.730;2023-12-04T11:21:04;5.43;;;4.83;;
47529;SDS011;33272;51.922;7.730;2023-12-04T11:23:35;6.47;;;5.43;;
47529;SDS011;33272;51.922;7.730;2023-12-04T11:26:04;7.43;;;5.80;;
47529;SDS011;33272;51.922;7.730;2023-12-04T11:28:33;6.90;;;5.37;;
47529;SDS011;33272;51.922;7.730;2023-12-04T11:31:03;8.03;;;5.80;;
47529;SDS011;33272;51.922;7.730;2023-12-04T11:33:34;10.13;;;7.43;;
47529;SDS011;33272;51.922;7.730;2023-12-04T11:36:08;9.47;;;7.17;;
47529;SDS011;33272;51.922;7.730;2023-12-04T11:38:40;12.17;;;7.77;;
47529;SDS011;33272;51.922;7.730;2023-12-04T11:41:14;6.50;;;5.03;;
47529;SDS011;33272;51.922;7.730;2023-12-04T11:43:42;5.80;;;5.03;;
47529;SDS011;33272;51.922;7.730;2023-12-04T11:46:13;9.80;;;7.13;;
47529;SDS011;33272;51.922;7.730;2023-12-04T11:48:47;9.13;;;5.63;;
47529;SDS011;33272;51.922;7.730;2023-12-04T11:51:15;6.70;;;5.87;;
47529;SDS011;33272;51.922;7.730;2023-12-04T11:54:04;7.17;;;6.00;;
47529;SDS011;33272;51.922;7.730;2023-12-04T11:56:33;6.83;;;5.17;;
47529;SDS011;33272;51.922;7.730;2023-12-04T11:59:02;5.77;;;5.03;;
47529;SDS011;33272;51.922;7.730;2023-12-04T12:01:32;6.20;;;4.93;;
47529;SDS011;33272;51.922;7.730;2023-12-04T12:04:00;7.30;;;5.97;;
47529;SDS011;33272;51.922;7.730;2023-12-04T12:06:27;7.30;;;5.57;;
47529;SDS011;33272;51.922;7.730;2023-12-04T12:08:55;8.43;;;6.53;;
47529;SDS011;33272;51.922;7.730;2023-12-04T12:11:24;7.70;;;6.00;;
47529;SDS011;33272;51.922;7.730;2023-12-04T12:13:52;7.30;;;5.43;;
47529;SDS011;33272;51.922;7.730;2023-12-04T12:16:19;8.70;;;7.37;;
47529;SDS011;33272;51.922;7.730;2023-12-04T12:18:46;9.80;;;8.80;;
47529;SDS011;33272;51.922;7.730;2023-12-04T12:21:14;6.03;;;5.43;;
47529;SDS011;33272;51.922;7.730;2023-12-04T12:23:41;6.87;;;5.20;;
47529;SDS011;33272;51.922;7.730;2023-12-04T12:26:08;5.70;;;5.10;;
47529;SDS011;33272;51.922;7.730;2023-12-04T12:28:37;6.00;;;5.17;;
47529;SDS011;33272;51.922;7.730;2023-12-04T12:31:04;5.73;;;4.90;;
47529;SDS011;33272;51.922;7.730;2023-12-04T12:33:32;6.67;;;5.67;;
47529;SDS011;33272;51.922;7.730;2023-12-04T12:35:59;7.33;;;5.93;;
47529;SDS011;33272;51.922;7.730;2023-12-04T12:38:28;6.30;;;4.87;;
47529;SDS011;33272;51.922;7.730;2023-12-04T12:40:59;6.00;;;5.07;;
47529;SDS011;33272;51.922;7.730;2023-12-04T12:43:27;6.50;;;5.47;;
47529;SDS011;33272;51.922;7.730;2023-12-04T12:45:55;6.37;;;5.57;;
47529;SDS011;33272;51.922;7.730;2023-12-04T12:48:22;5.87;;;4.70;;
47529;SDS011;33272;51.922;7.730;2023-12-04T12:50:52;7.67;;;5.30;;
47529;SDS011;33272;51.922;7.730;2023-12-04T12:53:21;7.17;;;5.97;;
47529;SDS011;33272;51.922;7.730;2023-12-04T12:55:49;5.53;;;4.73;;
47529;SDS011;33272;51.922;7.730;2023-12-04T12:58:16;7.27;;;5.53;;
47529;SDS011;33272;51.922;7.730;2023-12-04T13:00:45;6.53;;;5.43;;
47529;SDS011;33272;51.922;7.730;2023-12-04T13:03:15;6.60;;;5.57;;
47529;SDS011;33272;51.922;7.730;2023-12-04T13:05:43;5.87;;;5.27;;
47529;SDS011;33272;51.922;7.730;2023-12-04T13:08:10;6.93;;;5.13;;
47529;SDS011;33272;51.922;7.730;2023-12-04T13:10:38;6.67;;;5.97;;
47529;SDS011;33272;51.922;7.730;2023-12-04T13:13:09;6.97;;;5.80;;
47529;SDS011;33272;51.922;7.730;2023-12-04T13:15:36;6.90;;;5.27;;
47529;SDS011;33272;51.922;7.730;2023-12-04T13:18:03;6.73;;;5.43;;
47529;SDS011;33272;51.922;7.730;2023-12-04T13:20:32;11.40;;;9.20;;
47529;SDS011;33272;51.922;7.730;2023-12-04T13:23:00;9.60;;;7.63;;
47529;SDS011;33272;51.922;7.730;2023-12-04T13:25:27;6.77;;;6.07;;
47529;SDS011;33272;51.922;7.730;2023-12-04T13:27:54;7.00;;;6.27;;
47529;SDS011;33272;51.922;7.730;2023-12-04T13:30:21;6.50;;;5.87;;
47529;SDS011;33272;51.922;7.730;2023-12-04T13:32:48;6.30;;;5.50;;
47529;SDS011;33272;51.922;7.730;2023-12-04T13:35:16;8.13;;;6.47;;
47529;SDS011;33272;51.922;7.730;2023-12-04T13:37:44;7.60;;;6.00;;
47529;SDS011;33272;51.922;7.730;2023-12-04T13:40:19;8.37;;;6.50;;
47529;SDS011;33272;51.922;7.730;2023-12-04T13:42:46;7.70;;;6.07;;
47529;SDS011;33272;51.922;7.730;2023-12-04T13:45:30;8.30;;;6.23;;
47529;SDS011;33272;51.922;7.730;2023-12-04T13:47:59;7.47;;;6.60;;
47529;SDS011;33272;51.922;7.730;2023-12-04T13:50:26;8.33;;;6.93;;
47529;SDS011;33272;51.922;7.730;2023-12-04T13:52:55;8.07;;;6.80;;
47529;SDS011;33272;51.922;7.730;2023-12-04T13:55:23;12.87;;;9.53;;
47529;SDS011;33272;51.922;7.730;2023-12-04T13:58:06;9.13;;;7.37;;
47529;SDS011;33272;51.922;7.730;2023-12-04T14:00:50;7.80;;;6.47;;
47529;SDS011;33272;51.922;7.730;2023-12-04T14:03:17;8.57;;;6.83;;
47529;SDS011;33272;51.922;7.730;2023-12-04T14:05:44;8.33;;;7.10;;
47529;SDS011;33272;51.922;7.730;2023-12-04T14:08:13;9.10;;;7.50;;
47529;SDS011;33272;51.922;7.730;2023-12-04T14:10:40;9.33;;;7.70;;
47529;SDS011;33272;51.922;7.730;2023-12-04T14:13:07;10.43;;;6.57;;
47529;SDS011;33272;51.922;7.730;2023-12-04T14:15:34;8.87;;;6.83;;
47529;SDS011;33272;51.922;7.730;2023-12-04T14:18:01;8.93;;;7.47;;
47529;SDS011;33272;51.922;7.730;2023-12-04T14:20:29;10.30;;;7.93;;
47529;SDS011;33272;51.922;7.730;2023-12-04T14:22:56;8.17;;;7.30;;
47529;SDS011;33272;51.922;7.730;2023-12-04T14:25:24;9.30;;;7.13;;
47529;SDS011;33272;51.922;7.730;2023-12-04T14:27:51;8.60;;;6.13;;
47529;SDS011;33272;51.922;7.730;2023-12-04T14:30:18;8.50;;;7.20;;
47529;SDS011;33272;51.922;7.730;2023-12-04T14:32:45;9.13;;;7.07;;
47529;SDS011;33272;51.922;7.730;2023-12-04T14:35:13;8.97;;;7.13;;
47529;SDS011;33272;51.922;7.730;2023-12-04T14:37:41;8.93;;;6.93;;
47529;SDS011;33272;51.922;7.730;2023-12-04T14:40:08;7.07;;;6.30;;
47529;SDS011;33272;51.922;7.730;2023-12-04T14:42:42;9.37;;;7.23;;
47529;SDS011;33272;51.922;7.730;2023-12-04T14:45:10;9.87;;;6.90;;